Terminal Aerodrome Forecast
Issued by NWS

Home | Current Version | Previous Version | Text Only | Print | Product List | Glossary On
Versions: 1 2 3 4 5 6 7 8 9 10 11 12 13
000
FTUS42 TJSJ 161129
TAFIST
TAF
TIST 161129Z 1612/1712 07010KT P6SM VCSH SCT025 SCT040
     FM161450 08014G22KT P6SM SCT035
     FM162300 07011KT P6SM VCSH FEW025 SCT050=

USA.gov is the U.S. government's official web portal to all federal, state and local government web resources and services.